Flight Track Log - Related Links

Times and Time Zones

All times are in EDT time to prevent confusion due to time zone crossing. See the CSN3252 flight status page for this flight to view local times or setup timezone preferences in your user account.

Time Position Orientation Groundspeed Altitude Reporting Facility
EDT Latitude Longitude Course Direction KTS MPH feet Rate Location/Type
Thu 08:46:00 AM 31.1361 121.2020 242° Southwest  Level Estimated
Thu 08:47:00 AM 31.0742 121.0679 242° Southwest  Level Estimated
Thu 08:48:00 AM 31.0122 120.9340 242° Southwest  Level Estimated
Thu 08:49:00 AM 30.9501 120.8002 242° Southwest  Level Estimated
Thu 08:50:00 AM 30.8878 120.6666 242° Southwest  Level Estimated
Thu 08:51:00 AM 30.8253 120.5332 241° Southwest  Level Estimated
Thu 08:52:00 AM 30.7628 120.4000 241° Southwest  Level Estimated
Thu 08:53:00 AM 30.7000 120.2669 241° Southwest  Level Estimated
Thu 08:54:00 AM 30.6372 120.1340 241° Southwest  Level Estimated
Thu 08:55:00 AM 30.5742 120.0013 241° Southwest  Level Estimated
Thu 08:56:00 AM 30.5111 119.8687 241° Southwest  Level Estimated
Thu 08:57:00 AM 30.4479 119.7364 241° Southwest  Level Estimated
Thu 08:58:00 AM 30.3845 119.6041 241° Southwest  Level Estimated
Thu 08:59:00 AM 30.3210 119.4721 241° Southwest  Level Estimated
Thu 09:00:00 AM 30.2573 119.3402 241° Southwest  Level Estimated
Thu 09:01:00 AM 30.1935 119.2086 241° Southwest  Level Estimated
Thu 09:02:00 AM 30.1296 119.0770 241° Southwest  Level Estimated
Thu 09:03:00 AM 30.0656 118.9457 241° Southwest  Level Estimated
Thu 09:04:00 AM 30.0014 118.8145 241° Southwest  Level Estimated
Thu 09:05:00 AM 29.9371 118.6835 240° Southwest  Level Estimated
Thu 09:06:00 AM 29.8727 118.5527 240° Southwest  Level Estimated
Thu 09:07:00 AM 29.8081 118.4220 240° Southwest  Level Estimated
Thu 09:08:00 AM 29.7434 118.2915 240° Southwest  Level Estimated
Thu 09:09:00 AM 29.6786 118.1611 240° Southwest  Level Estimated
Thu 09:10:00 AM 29.6137 118.0310 240° Southwest  Level Estimated
Thu 09:11:00 AM 29.5486 117.9010 240° Southwest  Level Estimated
Thu 09:12:00 AM 29.4834 117.7711 240° Southwest  Level Estimated
Thu 09:13:00 AM 29.4181 117.6415 240° Southwest  Level Estimated
Thu 09:14:00 AM 29.3526 117.5120 240° Southwest  Level Estimated
Thu 09:15:00 AM 29.2871 117.3827 240° Southwest  Level Estimated
Thu 09:16:00 AM 29.2214 117.2535 240° Southwest  Level Estimated
Thu 09:17:00 AM 29.1556 117.1245 240° Southwest  Level Estimated
Thu 09:18:00 AM 29.0896 116.9957 240° Southwest  Level Estimated
Thu 09:19:00 AM 29.0235 116.8670 240° Southwest  Level Estimated
Thu 09:20:00 AM 28.9573 116.7385 240° Southwest  Level Estimated
Thu 09:21:00 AM 28.8910 116.6101 239° Southwest  Level Estimated
Thu 09:22:00 AM 28.8246 116.4819 239° Southwest  Level Estimated
Thu 09:23:00 AM 28.7581 116.3539 239° Southwest  Level Estimated
Thu 09:24:00 AM 28.6914 116.2261 239° Southwest  Level Estimated
Thu 09:25:00 AM 28.6246 116.0984 239° Southwest  Level Estimated
Thu 09:26:00 AM 28.5577 115.9709 239° Southwest  Level Estimated
Thu 09:27:00 AM 28.4907 115.8435 239° Southwest  Level Estimated
Thu 09:28:00 AM 28.4235 115.7163 239° Southwest  Level Estimated
Thu 09:29:00 AM 28.3562 115.5893 239° Southwest  Level Estimated
Thu 09:30:00 AM 28.2889 115.4624 239° Southwest  Level Estimated
Thu 09:31:00 AM 28.2213 115.3357 239° Southwest  Level Estimated
Thu 09:32:00 AM 28.1537 115.2091 239° Southwest  Level Estimated
Thu 09:33:00 AM 28.0860 115.0827 239° Southwest  Level Estimated
Thu 09:34:00 AM 28.0181 114.9565 239° Southwest  Level Estimated
Thu 09:35:00 AM 27.9502 114.8304 239° Southwest  Level Estimated
Thu 09:36:00 AM 27.8821 114.7045 239° Southwest  Level Estimated
Thu 09:37:00 AM 27.8139 114.5787 239° Southwest  Level Estimated
Thu 09:38:00 AM 27.7456 114.4531 238° Southwest  Level Estimated
Thu 09:39:00 AM 27.6772 114.3277 238° Southwest  Level Estimated
Thu 09:40:00 AM 27.6086 114.2024 238° Southwest  Level Estimated
Thu 09:41:00 AM 27.5400 114.0772 238° Southwest  Level Estimated
Thu 09:42:00 AM 27.4712 113.9523 238° Southwest  Level Estimated
Thu 09:43:00 AM 27.4023 113.8275 238° Southwest  Level Estimated
Thu 09:44:00 AM 27.3334 113.7028 238° Southwest  Level Estimated
Thu 09:45:00 AM 27.2643 113.5783 238° Southwest  Level Estimated
Thu 09:46:00 AM 27.1951 113.4539 238° Southwest  Level Estimated
Thu 09:47:00 AM 27.1257 113.3297 238° Southwest  Level Estimated
Thu 09:48:00 AM 27.0563 113.2057 238° Southwest  Level Estimated
Thu 09:49:00 AM 26.9868 113.0818 238° Southwest  Level Estimated
Thu 09:50:00 AM 26.9172 112.9581 238° Southwest  Level Estimated
Thu 09:51:00 AM 26.8474 112.8345 238° Southwest  Level Estimated
Thu 09:52:00 AM 26.7775 112.7110 238° Southwest  Level Estimated
Thu 09:53:00 AM 26.7076 112.5878 238° Southwest  Level Estimated
Thu 09:54:00 AM 26.6375 112.4646 238° Southwest  Level Estimated
Thu 09:55:00 AM 26.5674 112.3416 237° Southwest  Level Estimated
Thu 09:56:00 AM 26.4971 112.2188 237° Southwest  Level Estimated
Thu 09:57:00 AM 26.4267 112.0961 237° Southwest  Level Estimated
Thu 09:58:00 AM 26.3562 111.9736 237° Southwest  Level Estimated
Thu 09:59:00 AM 26.2856 111.8512 237° Southwest  Level Estimated
Thu 10:00:00 AM 26.2149 111.7290 237° Southwest  Level Estimated
Thu 10:01:00 AM 26.1441 111.6069 237° Southwest  Level Estimated
Thu 10:02:00 AM 26.0732 111.4850 237° Southwest  Level Estimated
Thu 10:03:00 AM 26.0022 111.3632 237° Southwest  Level Estimated
Thu 10:04:00 AM 25.9311 111.2416 237° Southwest  Level Estimated
Thu 10:05:00 AM 25.8599 111.1201 237° Southwest  Level Estimated
Thu 10:06:00 AM 25.7886 110.9987 237° Southwest  Level Estimated
Thu 10:07:00 AM 25.7171 110.8775 237° Southwest  Level Estimated
Thu 10:08:00 AM 25.6456 110.7565 237° Southwest  Level Estimated
Thu 10:09:00 AM 25.5740 110.6356 237° Southwest  Level Estimated
Thu 10:10:00 AM 25.5023 110.5148 237° Southwest  Level Estimated
Thu 10:11:00 AM 25.4305 110.3942 237° Southwest  Level Estimated
Thu 10:12:00 AM 25.3586 110.2737 237° Southwest  Level Estimated
Thu 10:13:00 AM 25.2866 110.1534 237° Southwest  Level Estimated
Thu 10:14:00 AM 25.2181 110.0392 236° Southwest  Level Estimated
Thu 10:15:00 AM 25.2181 110.0392 214° Southwest  Level Estimated
Thu 10:16:00 AM 25.2181 110.0392 214° Southwest  Level Estimated
Thu 10:17:00 AM 25.2181 110.0392 214° Southwest  Level Estimated
Thu 10:18:00 AM 25.2181 110.0392 214° Southwest  Level Estimated
Thu 10:19:00 AM 25.2181 110.0392 214° Southwest  Level Estimated
Thu 10:20:00 AM 25.2181 110.0392 214° Southwest  Level Estimated
Thu 10:21:00 AM 25.2181 110.0392 214° Southwest  Level Estimated
Thu 10:22:00 AM 25.2181 110.0392 214° Southwest  Level Estimated
Thu 10:23:00 AM 25.2181 110.0392 214° Southwest  Level Estimated
Thu 10:24:00 AM 25.2181 110.0392 214° Southwest  Level Estimated
Thu 10:25:00 AM 25.2181 110.0392 214° Southwest  Level Estimated
Thu 10:26:00 AM 25.2181 110.0392 214° Southwest  Level Estimated
Thu 10:27:00 AM 25.2181 110.0392 214° Southwest  Level Estimated
Thu 10:28:00 AM 25.2181 110.0392 214° Southwest  Level Estimated

Login

Don't have an account? Register now (free) for customized features, flight alerts, and more!